Time;durP1;ratioP1;P1;durP2;ratioP2;P2;SDS_P1;SDS_P2;PMS_P1;PMS_P2;Temp;Humidity;BMP_temperature;BMP_pressure;BME280_temperature;BME280_humidity;BME280_pressure;Samples;Min_cycle;Max_cycle;Signal;HPM_P1;HPM_P2
2021/09/11 00:00:17;;;;;;;7.33;5.80;;;17.70;99.90;;;;;;5072150;28;20258;-63
2021/09/11 00:02:44;;;;;;;10.50;6.60;;;17.70;99.90;;;;;;5072339;28;20291;-63
2021/09/11 00:05:11;;;;;;;11.80;6.60;;;17.70;99.90;;;;;;5071849;28;20278;-62
2021/09/11 00:07:39;;;;;;;12.47;6.87;;;17.70;99.90;;;;;;5072286;28;20258;-63
2021/09/11 00:10:07;;;;;;;8.63;7.17;;;17.70;99.90;;;;;;5072080;28;20258;-63
2021/09/11 00:12:35;;;;;;;10.00;6.77;;;17.70;99.90;;;;;;5072284;28;20213;-63
2021/09/11 00:15:02;;;;;;;11.00;6.77;;;17.80;99.90;;;;;;5071911;28;20274;-63
2021/09/11 00:17:29;;;;;;;9.80;6.83;;;17.80;99.90;;;;;;5072083;28;20632;-62
2021/09/11 00:19:56;;;;;;;9.73;6.57;;;17.80;99.90;;;;;;5072209;28;20660;-62
2021/09/11 00:22:22;;;;;;;9.23;7.07;;;17.70;99.90;;;;;;5072338;28;20205;-63
2021/09/11 00:24:50;;;;;;;9.10;7.23;;;17.70;99.90;;;;;;5071896;28;20225;-63
2021/09/11 00:27:17;;;;;;;10.03;7.40;;;17.70;99.90;;;;;;5072360;28;20625;-63
2021/09/11 00:29:44;;;;;;;10.37;7.33;;;17.70;99.90;;;;;;5072629;28;20205;-62
2021/09/11 00:32:11;;;;;;;10.17;7.53;;;17.70;99.90;;;;;;5072593;28;20205;-63
2021/09/11 00:34:37;;;;;;;10.53;7.93;;;17.70;99.90;;;;;;5072398;28;20220;-61
2021/09/11 00:37:04;;;;;;;9.13;7.60;;;17.70;99.90;;;;;;5071870;28;20216;-62
2021/09/11 00:39:31;;;;;;;11.83;7.37;;;17.70;99.90;;;;;;5074671;28;20205;-63
2021/09/11 00:41:59;;;;;;;9.87;7.87;;;17.70;99.90;;;;;;5076978;28;20209;-63
2021/09/11 00:44:26;;;;;;;10.73;7.80;;;17.70;99.90;;;;;;5074829;28;20225;-61
2021/09/11 00:46:52;;;;;;;12.13;8.20;;;17.70;99.90;;;;;;5071876;28;20209;-63
2021/09/11 00:49:19;;;;;;;11.07;7.57;;;17.70;99.90;;;;;;5071803;28;20205;-63
2021/09/11 00:51:46;;;;;;;10.20;7.90;;;17.70;99.90;;;;;;5071854;28;20676;-63
2021/09/11 00:54:13;;;;;;;12.80;8.47;;;17.70;99.90;;;;;;5071388;28;20229;-63
2021/09/11 00:56:40;;;;;;;11.13;7.70;;;17.70;99.90;;;;;;5071772;28;20213;-63
2021/09/11 00:59:08;;;;;;;12.60;8.47;;;17.70;99.90;;;;;;5071462;28;20259;-63
2021/09/11 01:01:35;;;;;;;14.97;8.60;;;17.70;99.90;;;;;;5071383;28;20209;-63
2021/09/11 01:04:02;;;;;;;13.07;8.47;;;17.70;99.90;;;;;;5071445;28;20258;-62
2021/09/11 01:06:31;;;;;;;13.03;9.03;;;17.70;99.90;;;;;;5071577;28;20255;-62
2021/09/11 01:08:58;;;;;;;14.80;8.63;;;17.60;99.90;;;;;;5072057;28;20208;-63
2021/09/11 01:11:25;;;;;;;12.93;9.23;;;17.60;99.90;;;;;;5071449;28;20204;-62
2021/09/11 01:13:52;;;;;;;10.83;8.53;;;17.60;99.90;;;;;;5071206;28;20273;-62
2021/09/11 01:16:20;;;;;;;15.17;9.03;;;17.60;99.90;;;;;;5071323;28;20621;-62
2021/09/11 01:18:46;;;;;;;10.43;8.57;;;17.60;99.90;;;;;;5071578;28;20278;-62
2021/09/11 01:21:13;;;;;;;14.23;8.77;;;17.60;99.90;;;;;;5071319;28;20735;-62
2021/09/11 01:23:42;;;;;;;12.57;8.83;;;17.60;99.90;;;;;;5071166;28;20282;-62
2021/09/11 01:26:09;;;;;;;11.93;9.50;;;17.70;99.90;;;;;;5071303;28;20213;-63
2021/09/11 01:28:35;;;;;;;12.53;9.17;;;17.70;99.90;;;;;;5071361;28;20204;-63
2021/09/11 01:31:03;;;;;;;12.57;9.80;;;17.70;99.90;;;;;;5071550;28;20205;-62
2021/09/11 01:33:30;;;;;;;12.47;9.40;;;17.70;99.90;;;;;;5071224;28;20238;-63
2021/09/11 01:35:56;;;;;;;13.27;9.67;;;17.70;99.90;;;;;;5071360;28;20208;-62
2021/09/11 01:38:23;;;;;;;12.03;8.67;;;17.70;99.90;;;;;;5071152;28;20224;-63
2021/09/11 01:40:51;;;;;;;12.80;9.97;;;17.80;99.90;;;;;;5074079;28;20208;-63
2021/09/11 01:43:27;;;;;;;13.07;9.93;;;17.80;99.90;;;;;;5074942;28;20212;-62
2021/09/11 01:45:53;;;;;;;11.47;9.53;;;17.80;99.90;;;;;;5074930;28;20627;-63
2021/09/11 01:48:20;;;;;;;11.83;9.57;;;17.80;99.90;;;;;;5074612;28;20204;-63
2021/09/11 01:50:47;;;;;;;14.80;10.23;;;17.80;99.90;;;;;;5074750;28;20262;-62
2021/09/11 01:53:13;;;;;;;15.53;9.47;;;17.80;99.90;;;;;;5074551;28;20262;-62
2021/09/11 01:55:40;;;;;;;14.53;11.70;;;17.80;99.90;;;;;;5074152;28;20201;-62
2021/09/11 01:58:08;;;;;;;16.07;11.87;;;17.90;99.90;;;;;;5074824;28;20221;-63
2021/09/11 02:00:35;;;;;;;13.60;11.90;;;17.90;99.90;;;;;;5074599;28;20205;-63
2021/09/11 02:03:02;;;;;;;17.17;13.23;;;17.90;99.90;;;;;;5074557;28;20273;-62
2021/09/11 02:05:29;;;;;;;20.07;15.00;;;18.00;99.90;;;;;;5074138;28;20228;-62
2021/09/11 02:07:55;;;;;;;19.23;14.83;;;17.90;99.90;;;;;;5074268;28;20201;-63
2021/09/11 02:10:22;;;;;;;19.07;15.83;;;17.90;99.90;;;;;;5074410;28;20205;-62
2021/09/11 02:12:48;;;;;;;18.73;14.77;;;17.90;99.90;;;;;;5074521;28;20251;-63
2021/09/11 02:15:16;;;;;;;21.27;16.40;;;18.00;99.90;;;;;;5074302;28;20229;-62
2021/09/11 02:17:44;;;;;;;20.90;16.97;;;18.00;99.90;;;;;;5074133;28;20209;-63
2021/09/11 02:20:13;;;;;;;20.20;17.07;;;18.00;99.90;;;;;;5074174;28;20217;-63
2021/09/11 02:22:40;;;;;;;23.87;18.77;;;18.00;99.90;;;;;;5073859;28;20251;-63
2021/09/11 02:25:08;;;;;;;21.30;17.80;;;17.90;99.90;;;;;;5074045;28;20290;-62
2021/09/11 02:27:35;;;;;;;21.17;17.60;;;18.00;99.90;;;;;;5074116;28;20213;-63
2021/09/11 02:30:02;;;;;;;22.03;18.43;;;18.00;99.90;;;;;;5074110;28;20209;-62
2021/09/11 02:32:30;;;;;;;25.13;18.97;;;18.00;99.90;;;;;;5074056;28;20201;-63
2021/09/11 02:34:56;;;;;;;27.20;19.03;;;18.00;99.90;;;;;;5073491;28;20270;-63
2021/09/11 02:37:23;;;;;;;26.23;19.97;;;18.00;99.90;;;;;;5073767;28;20274;-62
2021/09/11 02:39:50;;;;;;;29.93;20.67;;;18.00;99.90;;;;;;5073654;28;20762;-62
2021/09/11 02:42:16;;;;;;;28.07;20.03;;;18.00;99.90;;;;;;5073830;28;20200;-62
2021/09/11 02:44:43;;;;;;;26.80;19.80;;;18.00;99.90;;;;;;5073692;28;20229;-63
2021/09/11 02:47:10;;;;;;;26.60;20.20;;;18.00;99.90;;;;;;5073748;28;20247;-62
2021/09/11 02:49:38;;;;;;;30.13;21.63;;;18.00;99.90;;;;;;5073327;28;20201;-62
2021/09/11 02:52:05;;;;;;;34.77;21.87;;;18.10;99.90;;;;;;5072631;28;20205;-62
2021/09/11 02:54:31;;;;;;;31.37;22.67;;;17.90;99.90;;;;;;5073237;28;20266;-62
2021/09/11 02:56:58;;;;;;;30.27;22.07;;;17.90;99.90;;;;;;5073526;28;20209;-62
2021/09/11 02:59:24;;;;;;;32.27;21.33;;;17.90;99.90;;;;;;5073193;28;20635;-62
2021/09/11 03:01:51;;;;;;;34.43;23.33;;;17.90;99.90;;;;;;5073366;28;20213;-62
2021/09/11 03:04:18;;;;;;;34.70;23.47;;;17.90;99.90;;;;;;5072722;28;20229;-63
2021/09/11 03:06:46;;;;;;;35.03;23.40;;;17.90;99.90;;;;;;5073481;28;20241;-62
2021/09/11 03:09:12;;;;;;;40.23;24.90;;;17.90;99.90;;;;;;5073219;28;20267;-63
2021/09/11 03:11:39;;;;;;;41.10;26.00;;;17.80;99.90;;;;;;5073251;28;20567;-63
2021/09/11 03:14:06;;;;;;;42.27;26.83;;;17.90;99.90;;;;;;5072815;28;20771;-62
2021/09/11 03:16:32;;;;;;;39.03;26.20;;;17.90;99.90;;;;;;5072932;28;20205;-63
2021/09/11 03:18:59;;;;;;;38.57;26.17;;;17.90;99.90;;;;;;5072731;28;20221;-62
2021/09/11 03:21:25;;;;;;;38.07;25.40;;;17.90;99.90;;;;;;5073016;28;20208;-63
2021/09/11 03:23:53;;;;;;;40.37;26.10;;;17.90;99.90;;;;;;5072808;28;20719;-62
2021/09/11 03:26:20;;;;;;;37.73;25.47;;;17.80;99.90;;;;;;5072756;28;20255;-62
2021/09/11 03:28:47;;;;;;;39.90;25.47;;;17.70;99.90;;;;;;5072890;28;20201;-63
2021/09/11 03:31:13;;;;;;;39.60;26.03;;;17.70;99.90;;;;;;5072535;28;20315;-62
2021/09/11 03:33:40;;;;;;;42.23;27.40;;;17.80;99.90;;;;;;5072703;28;20278;-63
2021/09/11 03:36:07;;;;;;;41.57;26.60;;;17.80;99.90;;;;;;5072651;28;20262;-62
2021/09/11 03:38:33;;;;;;;41.33;26.40;;;17.80;99.90;;;;;;5072721;28;20640;-63
2021/09/11 03:41:01;;;;;;;43.77;28.13;;;17.80;99.90;;;;;;5072723;28;20665;-63
2021/09/11 03:43:28;;;;;;;46.20;27.23;;;17.80;99.90;;;;;;5072424;28;20204;-63
2021/09/11 03:45:54;;;;;;;41.93;28.63;;;17.80;99.90;;;;;;5072521;28;20629;-63
2021/09/11 03:48:21;;;;;;;41.97;27.30;;;17.90;99.90;;;;;;5072577;28;20201;-63
2021/09/11 03:50:48;;;;;;;45.30;27.23;;;17.90;99.90;;;;;;5072518;28;20254;-63
2021/09/11 03:53:14;;;;;;;49.57;29.47;;;17.90;99.90;;;;;;5072337;28;20282;-63
2021/09/11 03:55:41;;;;;;;44.80;27.87;;;17.90;99.90;;;;;;5072217;28;20274;-62
2021/09/11 03:58:09;;;;;;;48.90;29.07;;;17.90;99.90;;;;;;5072180;28;20727;-62
2021/09/11 04:00:36;;;;;;;48.47;30.27;;;17.80;99.90;;;;;;5072087;28;20258;-62
2021/09/11 04:03:02;;;;;;;49.27;29.93;;;17.80;99.90;;;;;;5072091;28;20204;-62
2021/09/11 04:05:29;;;;;;;47.17;29.47;;;17.90;99.90;;;;;;5072298;28;20221;-61
2021/09/11 04:07:56;;;;;;;47.93;29.43;;;17.90;99.90;;;;;;5072253;28;20254;-62
2021/09/11 04:10:22;;;;;;;51.03;30.40;;;17.90;99.90;;;;;;5073205;28;20737;-63
2021/09/11 04:12:49;;;;;;;49.97;29.60;;;17.90;99.90;;;;;;5072262;28;20240;-63
2021/09/11 04:15:17;;;;;;;52.40;31.57;;;17.90;99.90;;;;;;5071896;28;20289;-62
2021/09/11 04:17:44;;;;;;;49.10;29.37;;;17.80;99.90;;;;;;5072393;28;20246;-62
2021/09/11 04:20:12;;;;;;;48.20;29.70;;;17.90;99.90;;;;;;5071958;28;20225;-63
2021/09/11 04:22:38;;;;;;;43.53;28.10;;;17.80;99.90;;;;;;5071980;28;20255;-62
2021/09/11 04:25:06;;;;;;;43.40;28.17;;;17.90;99.90;;;;;;5071554;28;20730;-62
2021/09/11 04:27:32;;;;;;;44.90;27.93;;;17.90;99.90;;;;;;5071800;28;20204;-62
2021/09/11 04:29:59;;;;;;;44.03;27.20;;;17.80;99.90;;;;;;5072085;28;20212;-62
2021/09/11 04:32:27;;;;;;;43.60;28.67;;;17.90;99.90;;;;;;5072047;28;20212;-63
2021/09/11 04:34:54;;;;;;;46.70;28.77;;;17.80;99.90;;;;;;5071990;28;20225;-63
2021/09/11 04:37:20;;;;;;;44.70;27.63;;;17.90;99.90;;;;;;5072336;28;20250;-62
2021/09/11 04:39:47;;;;;;;42.47;26.83;;;17.90;99.90;;;;;;5073131;28;20630;-63
2021/09/11 04:42:14;;;;;;;46.10;28.50;;;17.80;99.90;;;;;;5072305;28;20209;-63
2021/09/11 04:44:40;;;;;;;43.37;28.67;;;17.70;99.90;;;;;;5072173;28;20290;-62
2021/09/11 04:47:07;;;;;;;41.00;27.33;;;17.70;99.90;;;;;;5071990;28;20209;-63
2021/09/11 04:49:35;;;;;;;40.57;27.10;;;17.70;99.90;;;;;;5071916;28;20230;-62
2021/09/11 04:52:02;;;;;;;40.67;26.07;;;17.70;99.90;;;;;;5071694;28;20631;-62
2021/09/11 04:54:28;;;;;;;41.13;26.60;;;17.70;99.90;;;;;;5071402;28;20282;-62
2021/09/11 04:56:55;;;;;;;45.40;27.97;;;17.60;99.90;;;;;;5071802;28;20239;-62
2021/09/11 04:59:22;;;;;;;38.83;27.60;;;17.60;99.90;;;;;;5071697;28;20229;-62
2021/09/11 05:01:48;;;;;;;40.97;25.87;;;17.50;99.90;;;;;;5071589;28;20209;-62
2021/09/11 05:04:15;;;;;;;39.33;26.57;;;17.50;99.90;;;;;;5071524;28;20229;-62
2021/09/11 05:06:43;;;;;;;40.03;26.13;;;17.40;99.90;;;;;;5071591;28;20629;-62
2021/09/11 05:09:10;;;;;;;38.20;24.37;;;17.30;99.90;;;;;;5071350;28;20205;-62
2021/09/11 05:11:36;;;;;;;31.13;21.37;;;17.40;99.90;;;;;;5071790;28;20209;-62
2021/09/11 05:14:03;;;;;;;29.87;21.20;;;17.30;99.90;;;;;;5071484;28;20713;-63
2021/09/11 05:16:30;;;;;;;28.67;20.67;;;17.30;92.40;;;;;;5075300;28;20673;-63
2021/09/11 05:18:56;;;;;;;26.07;19.03;;;17.30;79.70;;;;;;5075245;28;20228;-62
2021/09/11 05:21:23;;;;;;;24.30;16.93;;;17.20;19.90;;;;;;5075273;28;20802;-63
2021/09/11 05:23:51;;;;;;;24.57;17.37;;;17.20;1.00;;;;;;5074734;28;20225;-63
2021/09/11 05:26:18;;;;;;;21.17;16.27;;;17.20;1.00;;;;;;5075326;28;20205;-62
2021/09/11 05:28:44;;;;;;;22.43;15.80;;;17.20;1.00;;;;;;5073657;28;20262;-63
2021/09/11 05:31:11;;;;;;;22.27;15.53;;;17.10;1.00;;;;;;5074380;28;20255;-62
2021/09/11 05:33:38;;;;;;;20.37;15.00;;;17.10;1.00;;;;;;5074696;28;20274;-62
2021/09/11 05:36:05;;;;;;;18.47;13.90;;;17.10;1.00;;;;;;5074922;28;20212;-63
2021/09/11 05:38:31;;;;;;;21.13;14.63;;;17.10;1.00;;;;;;5074608;28;20208;-62
2021/09/11 05:40:59;;;;;;;18.90;13.50;;;17.10;1.00;;;;;;5074845;28;20227;-62
2021/09/11 05:43:26;;;;;;;20.27;14.20;;;17.10;1.00;;;;;;5074689;28;20200;-62
2021/09/11 05:45:53;;;;;;;20.70;11.73;;;17.00;1.00;;;;;;5074753;28;20278;-62
2021/09/11 05:48:19;;;;;;;17.87;12.00;;;16.90;1.00;;;;;;5074718;28;20201;-62
2021/09/11 05:50:46;;;;;;;15.07;10.83;;;16.90;1.00;;;;;;5074477;28;20224;-62
2021/09/11 05:53:13;;;;;;;13.20;10.37;;;16.90;1.00;;;;;;5074459;28;20320;-62
2021/09/11 05:55:39;;;;;;;18.10;10.40;;;16.90;1.00;;;;;;5074460;28;20566;-62
2021/09/11 05:58:07;;;;;;;12.93;10.53;;;16.90;1.00;;;;;;5074668;28;20241;-62
2021/09/11 06:00:34;;;;;;;13.83;10.50;;;16.90;1.00;;;;;;5074448;28;20221;-61
2021/09/11 06:03:01;;;;;;;13.97;9.30;;;16.90;1.00;;;;;;5074666;28;20211;-62
2021/09/11 06:05:28;;;;;;;12.30;9.53;;;16.90;1.00;;;;;;5073998;28;20624;-62
2021/09/11 06:07:54;;;;;;;11.93;8.93;;;16.90;1.00;;;;;;5074493;28;20213;-62
2021/09/11 06:10:21;;;;;;;16.90;9.37;;;16.90;1.00;;;;;;5074444;28;20254;-63
2021/09/11 06:12:48;;;;;;;14.53;8.97;;;16.90;1.00;;;;;;5074371;28;20209;-63
2021/09/11 06:15:16;;;;;;;9.67;7.40;;;17.00;1.00;;;;;;5074099;28;20271;-63
2021/09/11 06:17:42;;;;;;;12.50;8.47;;;17.10;1.00;;;;;;5074113;28;20201;-62
2021/09/11 06:20:10;;;;;;;11.57;7.50;;;17.20;99.90;;;;;;5073836;28;20225;-63
2021/09/11 06:22:37;;;;;;;15.13;8.40;;;17.20;1.00;;;;;;5074198;28;20627;-62
2021/09/11 06:25:04;;;;;;;12.20;7.60;;;17.30;99.90;;;;;;5073821;28;20229;-63
2021/09/11 06:27:31;;;;;;;11.73;7.50;;;17.30;99.90;;;;;;5074159;28;20216;-63
2021/09/11 06:29:58;;;;;;;9.20;6.87;;;17.30;99.90;;;;;;5074165;28;20200;-63
2021/09/11 06:32:26;;;;;;;9.27;6.63;;;17.30;99.90;;;;;;5073820;28;20212;-63
2021/09/11 06:34:53;;;;;;;8.37;6.40;;;17.40;99.90;;;;;;5073545;28;20650;-62
2021/09/11 06:37:19;;;;;;;8.63;6.90;;;17.30;1.00;;;;;;5074161;28;20212;-61
2021/09/11 06:39:46;;;;;;;8.97;5.63;;;17.30;1.00;;;;;;5073632;28;20217;-62
2021/09/11 06:42:14;;;;;;;9.33;6.30;;;17.30;1.00;;;;;;5073905;28;20212;-62
2021/09/11 06:44:41;;;;;;;7.90;5.77;;;17.30;1.00;;;;;;5069592;28;20225;-62
2021/09/11 06:47:08;;;;;;;9.60;5.40;;;17.40;1.00;;;;;;5072588;28;20670;-62
2021/09/11 06:49:36;;;;;;;9.17;5.27;;;17.40;99.90;;;;;;5073191;28;20261;-62
2021/09/11 06:52:03;;;;;;;7.20;4.47;;;17.30;1.00;;;;;;5073463;28;20205;-63
2021/09/11 06:54:29;;;;;;;7.67;4.53;;;17.40;85.90;;;;;;5072672;28;20771;-62
2021/09/11 06:56:56;;;;;;;5.80;3.83;;;17.40;92.30;;;;;;5072913;28;20575;-62
2021/09/11 06:59:23;;;;;;;9.13;4.17;;;17.40;99.90;;;;;;5072879;28;20212;-62
2021/09/11 07:01:50;;;;;;;7.07;4.10;;;17.40;74.70;;;;;;5072774;28;20234;-61
2021/09/11 07:04:16;;;;;;;9.47;4.23;;;17.40;91.60;;;;;;5072339;28;20225;-61
2021/09/11 07:06:44;;;;;;;9.27;4.40;;;17.40;99.90;;;;;;5072524;28;20685;-61
2021/09/11 07:09:11;;;;;;;9.30;4.40;;;17.40;1.00;;;;;;5072877;28;20278;-61
2021/09/11 07:11:38;;;;;;;7.27;4.60;;;17.20;99.90;;;;;;5072817;28;20213;-61
2021/09/11 07:14:05;;;;;;;9.43;4.70;;;17.10;99.90;;;;;;5072583;28;20270;-62
2021/09/11 07:16:31;;;;;;;8.23;4.40;;;17.10;1.00;;;;;;5072288;28;20681;-61
2021/09/11 07:18:58;;;;;;;5.87;4.20;;;17.10;99.90;;;;;;5072701;28;20266;-62
2021/09/11 07:21:24;;;;;;;6.40;4.10;;;17.20;17.80;;;;;;5072549;28;20274;-63
2021/09/11 07:23:53;;;;;;;10.00;4.03;;;17.30;1.00;;;;;;5072300;28;20237;-61
2021/09/11 07:26:20;;;;;;;7.63;4.30;;;17.40;1.00;;;;;;5072225;28;20739;-61
2021/09/11 07:28:46;;;;;;;4.87;4.20;;;17.40;99.90;;;;;;5072156;28;20204;-62
2021/09/11 07:31:13;;;;;;;8.50;4.30;;;17.40;99.90;;;;;;5072626;28;20204;-60
2021/09/11 07:33:40;;;;;;;6.17;4.30;;;17.40;99.90;;;;;;5072587;28;20307;-61
2021/09/11 07:36:07;;;;;;;9.30;4.47;;;17.50;99.90;;;;;;5072607;28;20209;-60
2021/09/11 07:38:34;;;;;;;8.40;4.27;;;17.50;99.90;;;;;;5072387;28;20208;-61
2021/09/11 07:41:03;;;;;;;9.60;4.57;;;17.60;1.00;;;;;;5072599;28;20221;-61
2021/09/11 07:43:29;;;;;;;8.13;4.03;;;17.60;99.90;;;;;;5072677;28;20209;-61
2021/09/11 07:45:56;;;;;;;8.40;4.40;;;17.60;99.90;;;;;;5072585;28;20263;-61
2021/09/11 07:48:23;;;;;;;7.07;4.00;;;17.60;99.90;;;;;;5072652;28;20620;-59
2021/09/11 07:50:50;;;;;;;6.53;4.07;;;17.60;99.90;;;;;;5072366;28;20197;-61
2021/09/11 07:53:17;;;;;;;6.27;3.97;;;17.60;99.90;;;;;;5072601;28;20209;-62
2021/09/11 07:55:44;;;;;;;6.67;4.03;;;17.60;1.00;;;;;;5072408;28;20208;-61
2021/09/11 07:58:12;;;;;;;6.67;4.03;;;17.60;1.00;;;;;;5072458;28;20205;-62
2021/09/11 08:00:38;;;;;;;5.73;3.90;;;17.60;99.90;;;;;;5072278;28;20229;-62
2021/09/11 08:03:05;;;;;;;4.90;4.00;;;17.50;99.90;;;;;;5072433;28;20278;-62
2021/09/11 08:05:32;;;;;;;6.90;4.20;;;17.50;99.90;;;;;;5071788;28;20279;-61
2021/09/11 08:07:58;;;;;;;6.00;4.03;;;17.50;99.90;;;;;;5072204;28;20209;-61
2021/09/11 08:10:26;;;;;;;6.50;4.10;;;17.50;99.90;;;;;;5071979;28;20235;-62
2021/09/11 08:12:53;;;;;;;6.40;4.50;;;17.50;99.90;;;;;;5072224;28;20205;-61
2021/09/11 08:15:21;;;;;;;5.73;4.20;;;17.60;1.00;;;;;;5071983;28;20278;-62
2021/09/11 08:17:48;;;;;;;8.23;4.50;;;17.60;99.90;;;;;;5071977;28;20209;-61
2021/09/11 08:20:15;;;;;;;7.23;4.23;;;17.70;99.90;;;;;;5071973;28;20217;-62
2021/09/11 08:22:43;;;;;;;7.13;3.90;;;17.70;99.90;;;;;;5072233;28;20209;-62
2021/09/11 08:25:11;;;;;;;5.90;4.10;;;17.80;1.00;;;;;;5071702;28;20221;-62
2021/09/11 08:27:37;;;;;;;6.23;3.90;;;17.80;99.90;;;;;;5072111;28;20204;-62
2021/09/11 08:30:05;;;;;;;5.43;4.00;;;17.80;1.00;;;;;;5071978;28;20197;-61
2021/09/11 08:32:35;;;;;;;8.03;4.17;;;17.90;99.90;;;;;;5071575;28;20719;-61
2021/09/11 08:35:02;;;;;;;6.30;3.40;;;18.00;1.00;;;;;;5072015;28;20236;-62
2021/09/11 08:37:29;;;;;;;8.13;3.20;;;18.20;99.90;;;;;;5072471;28;20614;-62
2021/09/11 08:39:55;;;;;;;4.83;3.03;;;18.20;99.90;;;;;;5072441;28;20744;-61
2021/09/11 08:42:22;;;;;;;6.60;3.00;;;18.40;86.90;;;;;;5072761;28;20259;-62
2021/09/11 08:44:49;;;;;;;3.57;2.37;;;18.60;99.90;;;;;;5072418;28;20224;-61
2021/09/11 08:47:15;;;;;;;5.27;2.43;;;18.90;1.00;;;;;;5072570;28;20204;-62
2021/09/11 08:49:43;;;;;;;5.23;2.83;;;19.10;1.00;;;;;;5074029;28;20300;-62
2021/09/11 08:52:12;;;;;;;7.50;2.63;;;19.30;1.00;;;;;;5076183;28;20254;-62
2021/09/11 08:54:39;;;;;;;3.77;2.03;;;19.40;99.90;;;;;;5075753;28;20243;-62
2021/09/11 08:57:20;;;;;;;4.33;2.00;;;19.50;35.90;;;;;;5075958;28;20211;-62
2021/09/11 08:59:47;;;;;;;4.43;1.93;;;19.40;1.00;;;;;;5076018;28;20215;-61
2021/09/11 09:02:14;;;;;;;2.73;1.70;;;19.40;99.90;;;;;;5075969;28;20254;-62
2021/09/11 09:04:51;;;;;;;4.20;2.03;;;19.30;99.90;;;;;;5075290;28;20282;-62
2021/09/11 09:07:34;;;;;;;2.63;1.80;;;19.30;99.90;;;;;;5075922;28;20283;-61
2021/09/11 09:10:04;;;;;;;2.67;1.93;;;19.30;99.90;;;;;;5075386;28;20592;-61
2021/09/11 09:12:33;;;;;;;4.27;1.90;;;19.20;99.90;;;;;;5075819;28;20802;-61
2021/09/11 09:15:05;;;;;;;3.57;1.60;;;19.10;99.90;;;;;;5075242;28;20283;-61
2021/09/11 09:17:40;;;;;;;2.17;1.70;;;19.10;99.90;;;;;;5075572;28;20197;-61
2021/09/11 09:20:17;;;;;;;3.53;1.60;;;19.10;99.90;;;;;;5075433;28;20626;-61
2021/09/11 09:22:46;;;;;;;4.60;2.20;;;19.20;99.90;;;;;;5075112;28;20679;-61
2021/09/11 09:25:27;;;;;;;4.97;2.43;;;19.10;99.90;;;;;;5074815;28;20650;-61
2021/09/11 09:27:57;;;;;;;2.93;1.93;;;19.20;99.90;;;;;;5075265;28;20650;-61
2021/09/11 09:30:34;;;;;;;3.23;1.77;;;19.20;99.90;;;;;;5074947;28;20681;-61
2021/09/11 09:33:01;;;;;;;2.63;1.83;;;19.20;99.90;;;;;;5075248;28;20189;-62
2021/09/11 09:35:29;;;;;;;2.47;1.90;;;19.20;99.90;;;;;;5074799;28;20651;-61
2021/09/11 09:37:58;;;;;;;2.73;1.53;;;19.20;99.90;;;;;;5074836;28;20743;-62
2021/09/11 09:40:41;;;;;;;2.40;1.70;;;19.20;99.90;;;;;;5075164;28;20271;-61
2021/09/11 09:43:09;;;;;;;3.73;2.13;;;19.20;38.00;;;;;;5074841;28;20189;-62
2021/09/11 09:45:36;;;;;;;3.13;1.83;;;19.10;67.20;;;;;;5074745;28;20678;-62
2021/09/11 09:48:05;;;;;;;3.00;1.90;;;19.10;99.90;;;;;;5074718;28;20655;-61
2021/09/11 09:50:34;;;;;;;5.03;3.53;;;19.10;96.30;;;;;;5075052;28;20235;-60
2021/09/11 09:53:01;;;;;;;4.50;2.13;;;19.20;99.90;;;;;;5074604;28;20669;-61
2021/09/11 09:55:28;;;;;;;3.10;1.67;;;19.30;99.90;;;;;;5074509;28;20749;-62
2021/09/11 09:57:55;;;;;;;5.87;1.80;;;19.40;99.90;;;;;;5074750;28;20254;-62
2021/09/11 10:00:22;;;;;;;2.43;1.67;;;19.50;99.90;;;;;;5074148;28;20229;-61
2021/09/11 10:02:49;;;;;;;5.00;1.90;;;19.60;46.60;;;;;;5074664;28;20557;-62
2021/09/11 10:05:19;;;;;;;3.43;1.87;;;19.70;58.00;;;;;;5074217;28;20221;-61
2021/09/11 10:07:54;;;;;;;2.90;1.97;;;19.80;7.40;;;;;;5074707;28;20209;-62
2021/09/11 10:10:28;;;;;;;2.20;1.60;;;19.90;8.20;;;;;;5074661;28;20606;-62
2021/09/11 10:13:05;;;;;;;2.37;1.40;;;20.10;1.00;;;;;;5074579;28;20201;-62
2021/09/11 10:15:35;;;;;;;2.00;1.63;;;20.20;1.00;;;;;;5073787;28;20232;-62
2021/09/11 10:18:02;;;;;;;4.37;1.87;;;20.20;1.00;;;;;;5074494;28;20205;-62
2021/09/11 10:20:49;;;;;;;3.73;1.87;;;20.30;1.00;;;;;;5074378;28;20269;-62
2021/09/11 10:23:17;;;;;;;2.30;1.50;;;20.30;1.00;;;;;;5073885;28;20255;-62
2021/09/11 10:25:45;;;;;;;2.17;1.90;;;20.30;1.00;;;;;;5073884;28;20205;-61
2021/09/11 10:28:13;;;;;;;3.47;1.60;;;20.50;1.00;;;;;;5073896;28;20274;-61
2021/09/11 10:31:03;;;;;;;3.80;2.20;;;20.50;1.00;;;;;;5074123;28;20205;-59
2021/09/11 10:33:41;;;;;;;3.00;2.00;;;20.40;1.00;;;;;;5073979;28;20204;-62
2021/09/11 10:36:12;;;;;;;3.00;2.43;;;20.40;1.00;;;;;;5073722;28;20698;-62
2021/09/11 10:38:42;;;;;;;2.67;1.83;;;20.40;1.00;;;;;;5073805;28;20575;-62
2021/09/11 10:41:10;;;;;;;4.60;2.20;;;20.50;1.00;;;;;;5073819;28;20221;-61
2021/09/11 10:43:37;;;;;;;3.57;2.17;;;20.50;1.00;;;;;;5073556;28;20228;-61
2021/09/11 10:46:07;;;;;;;3.73;2.13;;;20.40;1.00;;;;;;5073749;28;20216;-62
2021/09/11 10:48:47;;;;;;;3.13;2.30;;;20.30;1.00;;;;;;5073630;28;20209;-62
2021/09/11 10:51:17;;;;;;;6.13;2.10;;;20.20;1.00;;;;;;5073874;28;20205;-61
2021/09/11 10:54:13;;;;;;;3.43;2.27;;;20.30;1.00;;;;;;5073397;28;20263;-62
2021/09/11 10:56:43;;;;;;;3.93;2.23;;;20.40;1.00;;;;;;5073601;28;20204;-62
2021/09/11 10:59:36;;;;;;;2.90;1.90;;;20.40;1.00;;;;;;5073272;28;20642;-62
2021/09/11 11:02:23;;;;;;;2.40;1.90;;;20.40;1.00;;;;;;5073478;28;20647;-62
2021/09/11 11:04:55;;;;;;;2.97;2.43;;;20.40;1.00;;;;;;5073087;28;20239;-62
2021/09/11 11:07:25;;;;;;;2.87;2.10;;;20.40;1.00;;;;;;5073598;28;20209;-62
2021/09/11 11:09:54;;;;;;;3.50;1.70;;;20.30;1.00;;;;;;5073549;28;20228;-61
2021/09/11 11:12:24;;;;;;;4.30;2.60;;;20.50;1.00;;;;;;5072341;28;20254;-62
2021/09/11 11:14:54;;;;;;;4.10;2.30;;;20.60;1.00;;;;;;5072829;28;20740;-62
2021/09/11 11:17:21;;;;;;;5.60;2.40;;;20.60;1.00;;;;;;5073594;28;20193;-62
2021/09/11 11:19:49;;;;;;;3.17;2.30;;;20.60;1.00;;;;;;5072835;28;20239;-61
2021/09/11 11:22:18;;;;;;;2.97;2.10;;;20.50;1.00;;;;;;5068832;28;20585;-63
2021/09/11 11:24:47;;;;;;;2.93;2.10;;;20.40;1.00;;;;;;5071943;28;20229;-64
2021/09/11 11:27:17;;;;;;;3.87;2.60;;;20.50;1.00;;;;;;5072167;28;20706;-64
2021/09/11 11:29:45;;;;;;;3.03;2.10;;;20.40;1.00;;;;;;5072226;28;20685;-64
2021/09/11 11:32:12;;;;;;;5.23;2.27;;;20.30;1.00;;;;;;5071913;28;20254;-65
2021/09/11 11:34:40;;;;;;;4.40;2.30;;;20.40;1.00;;;;;;5071603;28;20286;-65
2021/09/11 11:37:08;;;;;;;3.83;2.63;;;20.20;1.00;;;;;;5072092;28;20213;-63
2021/09/11 11:39:38;;;;;;;3.03;2.20;;;20.30;1.00;;;;;;5071081;28;20208;-65
2021/09/11 11:42:07;;;;;;;2.77;2.23;;;20.30;1.00;;;;;;5071092;28;20262;-61
2021/09/11 11:44:39;;;;;;;7.33;2.50;;;20.30;1.00;;;;;;5071991;28;20721;-61
2021/09/11 11:47:14;;;;;;;4.37;2.40;;;20.30;1.00;;;;;;5071935;28;20259;-62
2021/09/11 11:49:42;;;;;;;3.17;2.60;;;20.40;1.00;;;;;;5072314;28;20266;-62
2021/09/11 11:52:12;;;;;;;4.17;2.63;;;20.40;1.00;;;;;;5072048;28;20200;-62
2021/09/11 11:54:39;;;;;;;4.30;2.40;;;20.40;1.00;;;;;;5071772;28;20641;-63
2021/09/11 11:57:12;;;;;;;3.53;2.23;;;20.50;1.00;;;;;;5072062;28;20255;-62
2021/09/11 11:59:41;;;;;;;4.13;2.67;;;20.40;1.00;;;;;;5071941;28;20201;-63
2021/09/11 12:02:18;;;;;;;3.77;2.40;;;20.40;1.00;;;;;;5071677;28;20778;-63
2021/09/11 12:04:45;;;;;;;3.67;2.63;;;20.50;1.00;;;;;;5071703;28;20228;-62
2021/09/11 12:07:25;;;;;;;3.70;2.63;;;20.60;1.00;;;;;;5072068;28;20650;-62
2021/09/11 12:09:51;;;;;;;4.10;2.60;;;20.60;1.00;;;;;;5071307;28;20274;-62
2021/09/11 12:12:19;;;;;;;3.63;2.23;;;20.70;1.00;;;;;;5071352;28;20945;-62
2021/09/11 12:14:47;;;;;;;3.60;2.47;;;20.70;1.00;;;;;;5071847;28;20225;-63
2021/09/11 12:17:15;;;;;;;3.50;2.60;;;20.70;1.00;;;;;;5071999;28;21002;-63
2021/09/11 12:19:42;;;;;;;3.33;2.40;;;20.80;1.00;;;;;;5071875;28;20426;-63
2021/09/11 12:22:17;;;;;;;2.87;2.47;;;20.90;1.00;;;;;;5071914;28;20271;-63
2021/09/11 12:24:44;;;;;;;3.67;2.77;;;20.90;1.00;;;;;;5071396;28;20254;-65
2021/09/11 12:27:11;;;;;;;5.27;2.73;;;20.70;1.00;;;;;;5071826;28;20204;-62
2021/09/11 12:29:38;;;;;;;5.27;2.77;;;20.60;1.00;;;;;;5071916;28;20205;-61
2021/09/11 12:32:06;;;;;;;4.40;2.97;;;20.70;1.00;;;;;;5071304;28;20270;-62
2021/09/11 12:34:43;;;;;;;4.20;2.50;;;20.80;1.00;;;;;;5071723;28;20312;-61
2021/09/11 12:37:10;;;;;;;5.43;2.73;;;20.90;1.00;;;;;;5071431;28;20687;-62
2021/09/11 12:39:38;;;;;;;3.87;3.00;;;20.80;1.00;;;;;;5071740;28;20204;-61
2021/09/11 12:42:09;;;;;;;6.77;3.30;;;20.90;1.00;;;;;;5071526;28;20236;-61
2021/09/11 12:44:36;;;;;;;8.60;3.47;;;20.80;1.00;;;;;;5071399;28;20221;-62
2021/09/11 12:47:07;;;;;;;5.07;3.10;;;20.90;1.00;;;;;;5071551;28;20669;-61